Terminal Aerodrome Forecast
Issued by NWS Bismarck, ND

Home | Current Version | Previous Version | Text Only | Print | Product List | Glossary Off
Versions: 1 2 3 4 5 6 7 8 9 10 11 12 13 14 15 16 17 18 19 20 21 22

350
FTUS43 KBIS 220533
TAFBIS
TAF
KBIS 220533Z 2206/2306 11012KT P6SM BKN060
     FM221500 14018G27KT P6SM OVC035
     FM222000 15018G28KT P6SM SCT100
     FM230000 15012G20KT P6SM BKN120
     FM230500 15008KT P6SM SCT200=

USA.gov is the U.S. government's official web portal to all federal, state and local government web resources and services.